createdAt,value
2023-05-10T00:03:48.511Z,12.66
2023-05-10T00:09:16.270Z,12.68
2023-05-10T00:14:41.247Z,12.66
2023-05-10T00:20:06.895Z,12.67
2023-05-10T00:25:34.252Z,12.70
2023-05-10T00:30:59.244Z,12.72
2023-05-10T00:36:25.776Z,12.75
2023-05-10T00:41:53.273Z,12.75
2023-05-10T00:47:19.286Z,12.75
2023-05-10T00:52:44.329Z,12.75
2023-05-10T00:58:12.289Z,12.71
2023-05-10T01:03:38.407Z,12.70
2023-05-10T01:09:03.313Z,12.70
2023-05-10T01:14:32.297Z,12.67
2023-05-10T01:19:59.257Z,12.64
2023-05-10T01:26:05.278Z,12.69
2023-05-10T01:31:56.311Z,12.70
2023-05-10T01:37:30.326Z,12.72
2023-05-10T01:43:03.293Z,12.73
2023-05-10T01:48:30.311Z,12.73
2023-05-10T01:53:59.360Z,12.74
2023-05-10T01:59:28.281Z,12.74
2023-05-10T02:04:55.296Z,12.73
2023-05-10T02:10:25.319Z,12.71
2023-05-10T02:15:52.335Z,12.74
2023-05-10T02:21:25.304Z,12.73
2023-05-10T02:26:54.311Z,12.75
2023-05-10T02:32:19.397Z,12.72
2023-05-10T02:37:46.301Z,12.71
2023-05-10T02:43:15.317Z,12.69
2023-05-10T02:48:40.318Z,12.69
2023-05-10T02:54:07.321Z,12.67
2023-05-10T02:59:35.347Z,12.67
2023-05-10T03:04:59.499Z,12.66
2023-05-10T03:10:24.324Z,12.64
2023-05-10T03:15:59.344Z,12.62
2023-05-10T03:21:28.364Z,12.65
2023-05-10T03:27:01.433Z,12.65
2023-05-10T03:32:29.392Z,12.64
2023-05-10T03:37:55.446Z,12.66
2023-05-10T03:43:20.347Z,12.61
2023-05-10T03:48:47.360Z,12.61
2023-05-10T03:54:12.367Z,12.61
2023-05-10T03:59:37.512Z,12.62
2023-05-10T04:05:05.367Z,12.57
2023-05-10T04:10:29.397Z,12.62
2023-05-10T04:15:54.387Z,12.62
2023-05-10T04:21:21.369Z,12.64
2023-05-10T04:26:46.417Z,12.68
2023-05-10T04:32:11.423Z,12.69
2023-05-10T04:37:39.414Z,12.70
2023-05-10T04:43:03.389Z,12.74
2023-05-10T04:48:28.394Z,12.75
2023-05-10T04:54:05.078Z,12.78
2023-05-10T04:59:31.405Z,12.79
2023-05-10T05:04:55.420Z,12.78
2023-05-10T05:10:23.426Z,12.76
2023-05-10T05:15:47.420Z,12.79
2023-05-10T05:21:12.398Z,12.79
2023-05-10T05:26:40.417Z,12.79
2023-05-10T05:32:05.456Z,12.76
2023-05-10T05:37:32.448Z,12.74
2023-05-10T05:43:00.460Z,12.78
2023-05-10T05:48:24.459Z,12.77
2023-05-10T05:53:49.444Z,12.83
2023-05-10T05:59:16.440Z,12.84
2023-05-10T06:04:44.411Z,12.87
2023-05-10T06:10:08.473Z,12.92
2023-05-10T06:15:36.467Z,13.05
2023-05-10T06:21:00.471Z,13.16
2023-05-10T06:26:25.468Z,13.23
2023-05-10T06:31:52.600Z,13.25
2023-05-10T06:37:17.500Z,13.27
2023-05-10T06:42:41.481Z,13.34
2023-05-10T06:48:09.505Z,13.35
2023-05-10T06:53:33.487Z,13.31
2023-05-10T06:58:58.507Z,13.23
2023-05-10T07:04:25.479Z,13.19
2023-05-10T07:09:50.504Z,13.21
2023-05-10T07:15:14.619Z,13.24
2023-05-10T07:20:42.957Z,13.24
2023-05-10T07:26:07.516Z,13.16
2023-05-10T07:31:32.501Z,13.12
2023-05-10T07:36:59.481Z,13.04
2023-05-10T07:42:24.537Z,13.12
2023-05-10T07:47:48.551Z,12.99
2023-05-10T07:53:16.514Z,13.01
2023-05-10T07:58:41.519Z,13.03
2023-05-10T08:04:06.571Z,13.17
2023-05-10T08:09:33.507Z,13.17
2023-05-10T08:14:58.508Z,13.24
2023-05-10T08:20:25.511Z,13.29
2023-05-10T08:25:53.512Z,13.24
2023-05-10T08:31:17.676Z,13.33
2023-05-10T08:36:42.501Z,13.54
2023-05-10T08:42:15.523Z,13.65
2023-05-10T08:47:41.570Z,13.80
2023-05-10T08:53:09.587Z,13.89
2023-05-10T08:58:37.550Z,14.09
2023-05-10T09:04:03.659Z,14.24
2023-05-10T09:09:28.573Z,14.40
2023-05-10T09:14:56.549Z,14.42
2023-05-10T09:20:21.548Z,14.39
2023-05-10T09:25:46.594Z,14.54
2023-05-10T09:31:20.605Z,14.58
2023-05-10T09:36:46.563Z,14.75
2023-05-10T09:42:11.583Z,14.97
2023-05-10T09:47:39.592Z,15.12
2023-05-10T09:53:06.581Z,15.23
2023-05-10T09:58:31.568Z,15.41
2023-05-10T10:04:05.610Z,15.52
2023-05-10T10:09:30.608Z,15.68
2023-05-10T10:14:57.661Z,15.72
2023-05-10T10:20:26.712Z,15.81
2023-05-10T10:25:55.593Z,15.90
2023-05-10T10:31:38.687Z,16.18
2023-05-10T10:37:08.656Z,16.31
2023-05-10T10:43:02.645Z,16.36
2023-05-10T10:48:32.807Z,16.38
2023-05-10T10:54:00.735Z,16.42
2023-05-10T10:59:37.603Z,16.52
2023-05-10T11:05:02.720Z,16.59
2023-05-10T11:10:33.725Z,16.67
2023-05-10T11:16:06.680Z,16.62
2023-05-10T11:21:32.614Z,16.69
2023-05-10T11:26:59.686Z,16.54
2023-05-10T11:32:25.801Z,16.40
2023-05-10T11:37:43.609Z,16.24
2023-05-10T11:43:13.790Z,15.79
2023-05-10T11:48:40.709Z,15.50
2023-05-10T11:54:06.756Z,15.23
2023-05-10T11:59:35.666Z,14.99
2023-05-10T12:05:00.757Z,14.52
2023-05-10T12:10:25.693Z,14.43
2023-05-10T12:15:52.725Z,14.12
2023-05-10T12:21:19.764Z,14.06
2023-05-10T12:26:46.819Z,13.93
2023-05-10T12:32:14.824Z,13.83
2023-05-10T12:37:43.762Z,13.77
2023-05-10T12:43:08.745Z,13.78
2023-05-10T12:48:36.710Z,13.78
2023-05-10T12:54:02.759Z,13.90
2023-05-10T12:59:28.778Z,13.92
2023-05-10T13:04:56.799Z,14.01
2023-05-10T13:10:22.683Z,14.07
2023-05-10T13:15:51.998Z,14.18
2023-05-10T13:21:19.685Z,14.29
2023-05-10T13:26:44.687Z,14.47
2023-05-10T13:32:08.717Z,14.59
2023-05-10T13:37:36.708Z,14.76
2023-05-10T13:43:00.832Z,15.00
2023-05-10T13:48:25.907Z,15.16
2023-05-10T13:53:54.968Z,15.24
2023-05-10T13:59:19.788Z,15.37
2023-05-10T14:04:44.812Z,15.30
2023-05-10T14:10:12.845Z,15.33
2023-05-10T14:15:38.890Z,15.45
2023-05-10T14:21:03.805Z,15.52
2023-05-10T14:26:30.780Z,15.69
2023-05-10T14:31:55.858Z,15.85
2023-05-10T14:37:19.729Z,16.04
2023-05-10T14:42:47.781Z,16.22
2023-05-10T14:48:12.760Z,16.43
2023-05-10T14:53:37.737Z,16.71
2023-05-10T14:59:06.798Z,16.87
2023-05-10T15:04:31.742Z,16.98
2023-05-10T15:09:55.774Z,17.12
2023-05-10T15:15:23.776Z,17.21
2023-05-10T15:20:48.825Z,17.28
2023-05-10T15:26:13.761Z,17.28
2023-05-10T15:31:48.875Z,17.37
2023-05-10T15:37:13.811Z,17.91
2023-05-10T15:42:37.808Z,18.18
2023-05-10T15:48:05.955Z,18.21
2023-05-10T15:53:29.823Z,18.07
2023-05-10T15:58:54.764Z,17.96
2023-05-10T16:04:21.806Z,17.84
2023-05-10T16:09:39.829Z,17.87
2023-05-10T16:15:04.838Z,17.88
2023-05-10T16:20:36.615Z,17.94
2023-05-10T16:26:01.873Z,17.99
2023-05-10T16:31:28.026Z,18.05
2023-05-10T16:36:55.903Z,18.10
2023-05-10T16:42:21.937Z,18.19
2023-05-10T16:47:49.320Z,18.24
2023-05-10T16:53:15.846Z,18.25
2023-05-10T16:58:40.846Z,18.18
2023-05-10T17:04:04.889Z,18.08
2023-05-10T17:09:32.913Z,17.92
2023-05-10T17:14:56.869Z,17.69
2023-05-10T17:20:21.995Z,17.60
2023-05-10T17:25:51.855Z,17.55
2023-05-10T17:31:23.885Z,17.44
2023-05-10T17:36:48.904Z,17.39
2023-05-10T17:42:15.876Z,17.21
2023-05-10T17:47:40.883Z,17.16
2023-05-10T17:53:04.894Z,17.18
2023-05-10T17:58:32.909Z,17.10
2023-05-10T18:03:58.874Z,17.04
2023-05-10T18:09:24.879Z,16.88
2023-05-10T18:14:51.951Z,16.74
2023-05-10T18:20:18.865Z,16.61
2023-05-10T18:25:43.900Z,16.46
2023-05-10T18:31:18.975Z,16.33
2023-05-10T18:36:43.901Z,16.18
2023-05-10T18:42:08.881Z,15.99
2023-05-10T18:47:36.990Z,15.86
2023-05-10T18:53:02.921Z,15.77
2023-05-10T18:58:27.901Z,15.68
2023-05-10T19:03:54.896Z,15.60
2023-05-10T19:09:19.938Z,15.54
2023-05-10T19:14:43.888Z,15.46
2023-05-10T19:20:11.965Z,15.39
2023-05-10T19:25:35.971Z,15.30
2023-05-10T19:31:12.022Z,15.11
2023-05-10T19:36:40.003Z,15.06
2023-05-10T19:42:05.011Z,14.61
2023-05-10T19:47:30.023Z,14.15
2023-05-10T19:52:56.960Z,13.78
2023-05-10T19:58:21.989Z,13.49
2023-05-10T20:03:46.060Z,13.32
2023-05-10T20:09:13.945Z,13.21
2023-05-10T20:14:38.034Z,12.97
2023-05-10T20:20:03.028Z,12.93
2023-05-10T20:25:30.983Z,12.79
2023-05-10T20:31:03.012Z,12.74
2023-05-10T20:36:28.997Z,12.69
2023-05-10T20:41:55.991Z,12.67
2023-05-10T20:47:21.019Z,12.64
2023-05-10T20:52:45.015Z,12.62
2023-05-10T20:58:13.097Z,12.62
2023-05-10T21:03:37.969Z,12.59
2023-05-10T21:09:03.029Z,12.57
2023-05-10T21:14:30.018Z,12.49
2023-05-10T21:19:55.015Z,12.52
2023-05-10T21:25:20.060Z,12.49
2023-05-10T21:30:48.015Z,12.41
2023-05-10T21:36:14.051Z,12.39
2023-05-10T21:41:39.056Z,12.37
2023-05-10T21:47:06.029Z,12.33
2023-05-10T21:52:31.060Z,12.39
2023-05-10T21:57:56.059Z,12.41
2023-05-10T22:03:24.274Z,12.44
2023-05-10T22:08:48.016Z,12.45
2023-05-10T22:14:13.047Z,12.49
2023-05-10T22:19:40.033Z,12.49
2023-05-10T22:25:05.061Z,12.50
2023-05-10T22:30:30.454Z,12.51
2023-05-10T22:36:00.033Z,12.51
2023-05-10T22:41:24.053Z,12.52
2023-05-10T22:46:49.096Z,12.52
2023-05-10T22:52:16.064Z,12.49
2023-05-10T22:57:41.088Z,12.50
2023-05-10T23:03:07.078Z,12.48
2023-05-10T23:08:35.072Z,12.46
2023-05-10T23:14:00.383Z,12.46
2023-05-10T23:19:26.237Z,12.45
2023-05-10T23:24:55.077Z,12.45
2023-05-10T23:30:21.056Z,12.45
2023-05-10T23:35:45.087Z,12.44
2023-05-10T23:41:13.072Z,12.42
2023-05-10T23:46:38.066Z,12.36
2023-05-10T23:52:03.126Z,12.33
2023-05-10T23:57:30.099Z,12.29
